Time;durP1;ratioP1;P1;durP2;ratioP2;P2;SDS_P1;SDS_P2;PMS_P1;PMS_P2;Temp;Humidity;BMP_temperature;BMP_pressure;BME280_temperature;BME280_humidity;BME280_pressure;Samples;Min_cycle;Max_cycle;Signal;HPM_P1;HPM_P2
2023/10/29 00:00:08;;;;;;;7.30;4.65;;;;;;;;;;2515170;23;20007;-78
2023/10/29 00:01:29;;;;;;;7.43;5.00;;;;;;;;;;2520074;23;20023;-77
2023/10/29 00:02:50;;;;;;;6.03;4.60;;;;;;;;;;2518929;23;20062;-79
2023/10/29 00:04:11;;;;;;;5.57;4.55;;;;;;;;;;2519666;23;20026;-77
2023/10/29 00:05:32;;;;;;;6.60;4.90;;;;;;;;;;2520567;23;20017;-78
2023/10/29 00:06:53;;;;;;;5.80;4.35;;;;;;;;;;2509535;23;20018;-77
2023/10/29 00:08:13;;;;;;;6.25;4.80;;;;;;;;;;2502714;23;20472;-78
2023/10/29 00:09:35;;;;;;;4.95;4.47;;;;;;;;;;2517207;23;20321;-77
2023/10/29 00:10:55;;;;;;;7.65;4.97;;;;;;;;;;2507102;23;20011;-77
2023/10/29 00:12:16;;;;;;;4.70;4.25;;;;;;;;;;2504422;23;20118;-78
2023/10/29 00:13:37;;;;;;;6.07;4.63;;;;;;;;;;2516336;23;20038;-78
2023/10/29 00:14:58;;;;;;;5.80;4.72;;;;;;;;;;2507899;23;20063;-78
2023/10/29 00:16:19;;;;;;;7.15;4.95;;;;;;;;;;2504529;23;20457;-77
2023/10/29 00:17:40;;;;;;;7.57;5.30;;;;;;;;;;2503291;23;20011;-77
2023/10/29 00:19:01;;;;;;;7.40;4.80;;;;;;;;;;2517459;23;20014;-78
2023/10/29 00:20:21;;;;;;;6.95;4.38;;;;;;;;;;2507737;23;20007;-77
2023/10/29 00:21:42;;;;;;;8.65;4.97;;;;;;;;;;2503268;23;20452;-78
2023/10/29 00:23:03;;;;;;;7.72;4.50;;;;;;;;;;2514519;23;20109;-77
2023/10/29 00:24:24;;;;;;;8.98;4.65;;;;;;;;;;2519142;23;20014;-77
2023/10/29 00:25:45;;;;;;;6.20;5.03;;;;;;;;;;2506144;23;20476;-77
2023/10/29 00:27:06;;;;;;;7.55;4.80;;;;;;;;;;2515499;23;20014;-79
2023/10/29 00:28:27;;;;;;;6.07;3.97;;;;;;;;;;2517597;23;20014;-78
2023/10/29 00:29:48;;;;;;;6.15;5.38;;;;;;;;;;2507382;23;20022;-77
2023/10/29 00:31:09;;;;;;;6.00;4.47;;;;;;;;;;2517485;23;20153;-78
2023/10/29 00:32:30;;;;;;;8.00;5.18;;;;;;;;;;2519989;23;20018;-78
2023/10/29 00:33:51;;;;;;;5.00;4.50;;;;;;;;;;2518352;23;20356;-78
2023/10/29 00:35:12;;;;;;;6.38;4.90;;;;;;;;;;2521025;23;20025;-77
2023/10/29 00:36:33;;;;;;;5.68;4.65;;;;;;;;;;2519652;23;20010;-77
2023/10/29 00:37:54;;;;;;;7.45;4.57;;;;;;;;;;2507150;23;20410;-77
2023/10/29 00:39:14;;;;;;;5.90;4.35;;;;;;;;;;2515682;23;20021;-78
2023/10/29 00:40:39;;;;;;;5.25;4.75;;;;;;;;;;2519590;23;20067;-76
2023/10/29 00:42:00;;;;;;;6.65;5.32;;;;;;;;;;2506594;23;20481;-77
2023/10/29 00:43:21;;;;;;;6.68;4.88;;;;;;;;;;2504462;23;20033;-77
2023/10/29 00:44:42;;;;;;;6.30;5.65;;;;;;;;;;2502516;23;20033;-77
2023/10/29 00:46:03;;;;;;;5.70;5.10;;;;;;;;;;2503089;23;20021;-77
2023/10/29 00:47:24;;;;;;;6.05;4.95;;;;;;;;;;2515501;23;20014;-77
2023/10/29 00:48:46;;;;;;;5.80;4.72;;;;;;;;;;2519691;23;20025;-78
2023/10/29 00:50:07;;;;;;;7.53;5.28;;;;;;;;;;2519075;23;20065;-77
2023/10/29 00:51:28;;;;;;;5.67;4.60;;;;;;;;;;2519980;23;20330;-77
2023/10/29 00:52:50;;;;;;;7.95;4.75;;;;;;;;;;2519446;23;20396;-77
2023/10/29 00:54:10;;;;;;;7.38;4.78;;;;;;;;;;2506668;23;20473;-77
2023/10/29 00:55:32;;;;;;;5.45;4.88;;;;;;;;;;2503995;23;20110;-77
2023/10/29 00:56:53;;;;;;;5.20;4.70;;;;;;;;;;2516782;23;20127;-78
2023/10/29 00:58:14;;;;;;;7.68;4.53;;;;;;;;;;2506962;23;20026;-77
2023/10/29 00:59:36;;;;;;;6.32;5.05;;;;;;;;;;2515400;23;20006;-78
2023/10/29 01:00:57;;;;;;;6.63;4.50;;;;;;;;;;2506727;23;20474;-78
2023/10/29 01:02:19;;;;;;;7.03;4.82;;;;;;;;;;2504009;23;20011;-78
2023/10/29 01:03:41;;;;;;;7.32;5.60;;;;;;;;;;2515764;23;20010;-78
2023/10/29 01:05:04;;;;;;;6.93;4.70;;;;;;;;;;2507032;23;20034;-77
2023/10/29 01:06:26;;;;;;;4.82;4.43;;;;;;;;;;2504958;23;20485;-78
2023/10/29 01:07:46;;;;;;;7.50;5.25;;;;;;;;;;2514287;23;20010;-79
2023/10/29 01:09:08;;;;;;;8.23;5.75;;;;;;;;;;2506208;23;20010;-78
2023/10/29 01:10:29;;;;;;;7.75;4.60;;;;;;;;;;2516231;23;20019;-77
2023/10/29 01:11:50;;;;;;;6.35;4.85;;;;;;;;;;2518336;23;20021;-78
2023/10/29 01:13:11;;;;;;;6.28;4.40;;;;;;;;;;2518868;23;20449;-77
2023/10/29 01:14:32;;;;;;;5.15;4.65;;;;;;;;;;2508532;23;20021;-78
2023/10/29 01:15:52;;;;;;;5.47;4.97;;;;;;;;;;2504105;23;20007;-78
2023/10/29 01:17:13;;;;;;;6.88;4.60;;;;;;;;;;2504221;23;20055;-78
2023/10/29 01:18:34;;;;;;;5.32;4.82;;;;;;;;;;2515609;23;20014;-77
2023/10/29 01:19:56;;;;;;;7.07;5.25;;;;;;;;;;2517928;23;20013;-77
2023/10/29 01:21:17;;;;;;;5.47;4.35;;;;;;;;;;2508523;23;20011;-77
2023/10/29 01:22:38;;;;;;;7.07;5.03;;;;;;;;;;2516558;23;20010;-78
2023/10/29 01:24:00;;;;;;;7.28;5.32;;;;;;;;;;2517682;23;20049;-78
2023/10/29 01:25:22;;;;;;;7.00;5.28;;;;;;;;;;2519353;23;20010;-77
2023/10/29 01:26:43;;;;;;;6.15;4.25;;;;;;;;;;2520473;23;20014;-77
2023/10/29 01:28:04;;;;;;;6.10;4.70;;;;;;;;;;2518450;23;20025;-78
2023/10/29 01:29:26;;;;;;;6.63;4.80;;;;;;;;;;2505990;23;20133;-78
2023/10/29 01:30:47;;;;;;;7.80;4.65;;;;;;;;;;2514994;23;20019;-79
2023/10/29 01:32:08;;;;;;;8.70;5.10;;;;;;;;;;2508836;23;20018;-78
2023/10/29 01:33:29;;;;;;;5.53;4.68;;;;;;;;;;2504424;23;20014;-78
2023/10/29 01:34:50;;;;;;;4.75;4.18;;;;;;;;;;2517153;23;20010;-78
2023/10/29 01:36:11;;;;;;;5.35;4.82;;;;;;;;;;2507203;23;20007;-79
2023/10/29 01:37:32;;;;;;;4.63;4.22;;;;;;;;;;2504504;23;20011;-79
2023/10/29 01:38:53;;;;;;;6.88;4.63;;;;;;;;;;2514514;23;20021;-78
2023/10/29 01:40:14;;;;;;;5.63;4.70;;;;;;;;;;2507542;23;20075;-78
2023/10/29 01:41:35;;;;;;;8.20;5.07;;;;;;;;;;2503434;23;20010;-78
2023/10/29 01:42:55;;;;;;;6.40;5.30;;;;;;;;;;2514348;23;20021;-78
2023/10/29 01:44:16;;;;;;;6.93;4.97;;;;;;;;;;2506128;23;20437;-79
2023/10/29 01:45:37;;;;;;;9.40;4.95;;;;;;;;;;2502565;23;20094;-78
2023/10/29 01:46:58;;;;;;;6.72;5.30;;;;;;;;;;2503360;23;20007;-79
2023/10/29 01:48:21;;;;;;;7.97;5.22;;;;;;;;;;2514941;23;20010;-78
2023/10/29 01:49:42;;;;;;;7.63;4.70;;;;;;;;;;2508450;23;20532;-80
2023/10/29 01:51:04;;;;;;;6.88;4.97;;;;;;;;;;2514311;23;20014;-79
2023/10/29 01:52:25;;;;;;;5.82;5.07;;;;;;;;;;2506523;23;20021;-79
2023/10/29 01:53:46;;;;;;;4.88;4.40;;;;;;;;;;2507130;23;20011;-78
2023/10/29 01:55:07;;;;;;;6.45;4.72;;;;;;;;;;2514896;23;20464;-78
2023/10/29 01:56:28;;;;;;;8.02;4.72;;;;;;;;;;2517675;23;20006;-79
2023/10/29 01:57:49;;;;;;;7.03;4.75;;;;;;;;;;2505889;23;20010;-78
2023/10/29 01:59:13;;;;;;;5.60;4.63;;;;;;;;;;2515795;23;20014;-79
2023/10/29 02:00:34;;;;;;;5.03;3.85;;;;;;;;;;2506677;23;20010;-78
2023/10/29 02:01:55;;;;;;;5.53;4.80;;;;;;;;;;2515347;23;20073;-78
2023/10/29 02:03:16;;;;;;;5.75;5.07;;;;;;;;;;2519687;23;20014;-78
2023/10/29 02:04:37;;;;;;;4.28;3.58;;;;;;;;;;2518618;23;20018;-79
2023/10/29 02:05:58;;;;;;;6.47;4.70;;;;;;;;;;2507046;23;20397;-79
2023/10/29 02:07:19;;;;;;;4.38;3.95;;;;;;;;;;2516312;23;20049;-79
2023/10/29 02:08:40;;;;;;;6.75;4.80;;;;;;;;;;2518521;23;20022;-79
2023/10/29 02:10:01;;;;;;;8.05;4.75;;;;;;;;;;2507743;23;20014;-79
2023/10/29 02:11:22;;;;;;;5.53;4.95;;;;;;;;;;2515384;23;20082;-78
2023/10/29 02:12:43;;;;;;;4.73;4.33;;;;;;;;;;2520421;23;20013;-78
2023/10/29 02:14:04;;;;;;;8.18;4.95;;;;;;;;;;2509030;23;20014;-79
2023/10/29 02:15:25;;;;;;;7.22;4.28;;;;;;;;;;2516219;23;20010;-79
2023/10/29 02:16:49;;;;;;;10.02;5.75;;;;;;;;;;2518876;23;20017;-79
2023/10/29 02:18:11;;;;;;;5.97;4.57;;;;;;;;;;2508164;23;20011;-80
2023/10/29 02:19:32;;;;;;;4.88;4.35;;;;;;;;;;2504353;23;20377;-78
2023/10/29 02:20:53;;;;;;;7.65;4.55;;;;;;;;;;2516709;23;20062;-79
2023/10/29 02:22:14;;;;;;;5.68;4.55;;;;;;;;;;2518333;23;20007;-78
2023/10/29 02:23:35;;;;;;;6.20;4.20;;;;;;;;;;2507584;23;20410;-79
2023/10/29 02:24:56;;;;;;;5.85;4.40;;;;;;;;;;2515887;23;20018;-78
2023/10/29 02:26:17;;;;;;;8.60;5.25;;;;;;;;;;2518169;23;20021;-79
2023/10/29 02:27:38;;;;;;;7.78;4.63;;;;;;;;;;2506699;23;20007;-78
2023/10/29 02:28:59;;;;;;;4.93;4.30;;;;;;;;;;2516090;23;20393;-78
2023/10/29 02:30:20;;;;;;;5.47;4.82;;;;;;;;;;2506839;23;20014;-78
2023/10/29 02:31:41;;;;;;;6.05;4.75;;;;;;;;;;2505441;23;20015;-79
2023/10/29 02:33:02;;;;;;;5.95;4.50;;;;;;;;;;2514691;23;20019;-78
2023/10/29 02:34:23;;;;;;;7.72;4.70;;;;;;;;;;2519383;23;20021;-79
2023/10/29 02:35:46;;;;;;;7.03;5.07;;;;;;;;;;2518565;23;20034;-79
2023/10/29 02:37:07;;;;;;;7.32;5.45;;;;;;;;;;2508987;23;20034;-79
2023/10/29 02:38:27;;;;;;;5.28;4.45;;;;;;;;;;2502893;23;20006;-79
2023/10/29 02:39:48;;;;;;;6.95;4.93;;;;;;;;;;2516722;23;20042;-78
2023/10/29 02:41:09;;;;;;;5.13;4.07;;;;;;;;;;2506203;23;20368;-79
2023/10/29 02:42:30;;;;;;;6.47;4.85;;;;;;;;;;2515594;23;20011;-78
2023/10/29 02:43:52;;;;;;;9.25;5.18;;;;;;;;;;2506755;23;20007;-79
2023/10/29 02:45:13;;;;;;;6.95;4.65;;;;;;;;;;2515939;23;20017;-78
2023/10/29 02:46:37;;;;;;;4.85;4.32;;;;;;;;;;2506388;23;20345;-79
2023/10/29 02:47:58;;;;;;;7.75;5.05;;;;;;;;;;2502362;23;20441;-79
2023/10/29 02:49:19;;;;;;;6.53;5.10;;;;;;;;;;2504080;23;20041;-78
2023/10/29 02:50:39;;;;;;;5.55;4.72;;;;;;;;;;2515059;23;20018;-79
2023/10/29 02:52:00;;;;;;;5.63;5.03;;;;;;;;;;2507964;23;20072;-78
2023/10/29 02:53:22;;;;;;;6.78;5.30;;;;;;;;;;2515833;23;20017;-79
2023/10/29 02:54:42;;;;;;;9.93;5.40;;;;;;;;;;2506666;23;20047;-79
2023/10/29 02:56:03;;;;;;;4.78;4.35;;;;;;;;;;2504525;23;20378;-79
2023/10/29 02:57:28;;;;;;;6.20;4.72;;;;;;;;;;2502724;23;20477;-79
2023/10/29 02:58:48;;;;;;;7.20;5.80;;;;;;;;;;2514444;23;20022;-79
2023/10/29 03:00:12;;;;;;;9.07;5.15;;;;;;;;;;2506508;23;20011;-79
2023/10/29 03:01:33;;;;;;;8.02;5.45;;;;;;;;;;2503470;23;20046;-79
2023/10/29 03:02:54;;;;;;;7.15;4.78;;;;;;;;;;2505103;23;20011;-79
2023/10/29 03:04:15;;;;;;;6.65;5.60;;;;;;;;;;2503219;23;20370;-79
2023/10/29 03:05:36;;;;;;;6.80;6.10;;;;;;;;;;2501448;23;20023;-79
2023/10/29 03:06:57;;;;;;;5.22;4.57;;;;;;;;;;2501674;23;20014;-79
2023/10/29 03:08:18;;;;;;;8.10;5.38;;;;;;;;;;2505424;23;20026;-79
2023/10/29 03:09:39;;;;;;;7.18;5.15;;;;;;;;;;2507882;23;20011;-78
2023/10/29 03:11:00;;;;;;;5.30;4.68;;;;;;;;;;2508370;23;20437;-78
2023/10/29 03:12:21;;;;;;;5.05;4.55;;;;;;;;;;2508820;23;20038;-78
2023/10/29 03:13:42;;;;;;;5.82;4.50;;;;;;;;;;2507796;23;20014;-79
2023/10/29 03:15:03;;;;;;;5.78;4.95;;;;;;;;;;2509287;23;20084;-79
2023/10/29 03:16:23;;;;;;;5.75;5.15;;;;;;;;;;2507701;23;20100;-79
2023/10/29 03:17:44;;;;;;;5.30;4.63;;;;;;;;;;2509113;23;20090;-79
2023/10/29 03:19:05;;;;;;;7.75;5.00;;;;;;;;;;2505246;23;20062;-78
2023/10/29 03:20:26;;;;;;;5.97;5.20;;;;;;;;;;2507053;23;20014;-79
2023/10/29 03:21:49;;;;;;;6.93;5.75;;;;;;;;;;2512301;23;20021;-78
2023/10/29 03:23:10;;;;;;;6.50;5.35;;;;;;;;;;2507997;23;20011;-79
2023/10/29 03:24:31;;;;;;;6.88;4.90;;;;;;;;;;2505816;23;20011;-79
2023/10/29 03:25:51;;;;;;;5.57;4.68;;;;;;;;;;2506324;23;20026;-78
2023/10/29 03:27:12;;;;;;;5.80;4.55;;;;;;;;;;2514148;23;20037;-79
2023/10/29 03:28:35;;;;;;;5.45;4.95;;;;;;;;;;2509800;23;20354;-79
2023/10/29 03:29:56;;;;;;;7.75;4.82;;;;;;;;;;2506193;23;20027;-79
2023/10/29 03:31:18;;;;;;;7.15;5.45;;;;;;;;;;2505897;23;20011;-78
2023/10/29 03:32:39;;;;;;;4.82;4.43;;;;;;;;;;2506305;23;20018;-78
2023/10/29 03:34:00;;;;;;;7.95;5.18;;;;;;;;;;2502307;23;20022;-79
2023/10/29 03:35:21;;;;;;;5.10;4.60;;;;;;;;;;2501727;23;20294;-78
2023/10/29 03:36:42;;;;;;;5.60;4.90;;;;;;;;;;2506152;23;20074;-79
2023/10/29 03:38:03;;;;;;;6.55;4.28;;;;;;;;;;2506726;23;20126;-78
2023/10/29 03:39:24;;;;;;;7.55;5.32;;;;;;;;;;2502186;23;20351;-78
2023/10/29 03:40:45;;;;;;;5.93;4.88;;;;;;;;;;2500032;23;20007;-79
2023/10/29 03:42:05;;;;;;;9.68;6.07;;;;;;;;;;2512021;23;20018;-79
2023/10/29 03:43:26;;;;;;;9.10;5.75;;;;;;;;;;2504934;23;20404;-78
2023/10/29 03:44:47;;;;;;;6.13;5.07;;;;;;;;;;2504753;23;20014;-78
2023/10/29 03:46:09;;;;;;;6.20;5.32;;;;;;;;;;2506381;23;20014;-79
2023/10/29 03:47:30;;;;;;;;;;;;;;;;;;2506195;23;20010;-78
2023/10/29 03:48:51;;;;;;;6.93;4.97;;;;;;;;;;2500659;23;20416;-78
2023/10/29 03:50:12;;;;;;;7.38;4.97;;;;;;;;;;2505395;23;20010;-79
2023/10/29 03:51:33;;;;;;;5.90;4.25;;;;;;;;;;2507991;23;20538;-79
2023/10/29 03:52:54;;;;;;;5.65;4.90;;;;;;;;;;2505394;23;20011;-78
2023/10/29 03:54:14;;;;;;;6.80;6.00;;;;;;;;;;2505023;23;20011;-78
2023/10/29 03:55:36;;;;;;;6.88;5.68;;;;;;;;;;2505141;23;20015;-78
2023/10/29 03:56:57;;;;;;;8.43;5.53;;;;;;;;;;2505422;23;20042;-78
2023/10/29 03:58:17;;;;;;;7.78;6.13;;;;;;;;;;2505019;23;20007;-78
2023/10/29 03:59:38;;;;;;;4.97;4.50;;;;;;;;;;2506096;23;20038;-78
2023/10/29 04:01:01;;;;;;;6.35;5.35;;;;;;;;;;2505793;23;20361;-78
2023/10/29 04:02:22;;;;;;;5.30;4.68;;;;;;;;;;2504163;23;20146;-78
2023/10/29 04:03:46;;;;;;;6.28;5.30;;;;;;;;;;2498346;23;20011;-79
2023/10/29 04:05:07;;;;;;;8.60;5.05;;;;;;;;;;2492874;23;20016;-78
2023/10/29 04:06:27;;;;;;;6.57;5.07;;;;;;;;;;2494350;23;20338;-78
2023/10/29 04:07:48;;;;;;;7.03;4.70;;;;;;;;;;2494982;23;20062;-79
2023/10/29 04:09:12;;;;;;;5.70;5.10;;;;;;;;;;2492768;23;20016;-78
2023/10/29 04:10:33;;;;;;;10.25;4.90;;;;;;;;;;2490391;23;20026;-78
2023/10/29 04:11:54;;;;;;;4.80;4.35;;;;;;;;;;2494606;23;20038;-79
2023/10/29 04:13:15;;;;;;;6.82;4.93;;;;;;;;;;2493633;23;20011;-79
2023/10/29 04:14:37;;;;;;;8.93;4.78;;;;;;;;;;2493426;23;20022;-79
2023/10/29 04:15:57;;;;;;;5.38;4.70;;;;;;;;;;2493562;23;20066;-79
2023/10/29 04:17:18;;;;;;;5.82;5.20;;;;;;;;;;2494535;23;20443;-79
2023/10/29 04:18:39;;;;;;;6.22;5.13;;;;;;;;;;2493900;23;20521;-78
2023/10/29 04:20:00;;;;;;;5.97;4.30;;;;;;;;;;2494540;23;20014;-79
2023/10/29 04:21:21;;;;;;;7.10;5.03;;;;;;;;;;2491264;23;20022;-78
2023/10/29 04:22:42;;;;;;;6.07;4.82;;;;;;;;;;2490381;23;20018;-78
2023/10/29 04:24:03;;;;;;;5.85;4.80;;;;;;;;;;2489494;23;20019;-78
2023/10/29 04:25:24;;;;;;;8.35;5.75;;;;;;;;;;2489798;23;20026;-78
2023/10/29 04:26:45;;;;;;;6.30;4.50;;;;;;;;;;2489430;23;20015;-78
2023/10/29 04:28:06;;;;;;;10.10;5.35;;;;;;;;;;2490846;23;20434;-78
2023/10/29 04:29:27;;;;;;;7.03;5.63;;;;;;;;;;2489450;23;20011;-78
2023/10/29 04:30:48;;;;;;;7.13;4.45;;;;;;;;;;2495487;23;20022;-78
2023/10/29 04:32:09;;;;;;;7.30;4.90;;;;;;;;;;2493921;23;20019;-78
2023/10/29 04:33:30;;;;;;;7.60;5.25;;;;;;;;;;2494176;23;20035;-79
2023/10/29 04:34:50;;;;;;;7.78;5.22;;;;;;;;;;2494643;23;20016;-78
2023/10/29 04:36:18;;;;;;;5.55;4.90;;;;;;;;;;2495161;23;20030;-78
2023/10/29 04:37:39;;;;;;;6.07;3.92;;;;;;;;;;2494599;23;20012;-79
2023/10/29 04:39:00;;;;;;;7.18;4.25;;;;;;;;;;2494665;23;20353;-79
2023/10/29 04:40:20;;;;;;;5.68;4.20;;;;;;;;;;2494826;23;20015;-77
2023/10/29 04:41:41;;;;;;;6.47;4.32;;;;;;;;;;2495765;23;20022;-78
2023/10/29 04:43:02;;;;;;;8.13;4.68;;;;;;;;;;2494996;23;20015;-78
2023/10/29 04:44:23;;;;;;;6.93;4.95;;;;;;;;;;2493947;23;20024;-78
2023/10/29 04:45:44;;;;;;;5.90;4.53;;;;;;;;;;2490933;23;20083;-77
2023/10/29 04:47:05;;;;;;;7.13;4.97;;;;;;;;;;2489791;23;20016;-77
2023/10/29 04:48:26;;;;;;;6.00;4.60;;;;;;;;;;2494054;23;20011;-78
2023/10/29 04:49:47;;;;;;;8.45;4.60;;;;;;;;;;2507147;23;20022;-78
2023/10/29 04:51:08;;;;;;;8.73;4.95;;;;;;;;;;2499657;23;20011;-78
2023/10/29 04:52:29;;;;;;;6.80;5.32;;;;;;;;;;2494349;23;20082;-78
2023/10/29 04:53:49;;;;;;;6.53;4.55;;;;;;;;;;2490972;23;20007;-78
2023/10/29 04:55:10;;;;;;;6.70;4.90;;;;;;;;;;2491044;23;20268;-78
2023/10/29 04:56:32;;;;;;;5.53;4.65;;;;;;;;;;2495572;23;20030;-78
2023/10/29 04:57:53;;;;;;;6.32;4.75;;;;;;;;;;2495820;23;20290;-78
2023/10/29 04:59:14;;;;;;;6.10;4.22;;;;;;;;;;2492841;23;20473;-78
2023/10/29 05:00:35;;;;;;;5.90;4.90;;;;;;;;;;2495060;23;20056;-78
2023/10/29 05:01:55;;;;;;;4.85;4.45;;;;;;;;;;2516274;23;20174;-78
2023/10/29 05:03:16;;;;;;;8.02;5.13;;;;;;;;;;2508483;23;20444;-78
2023/10/29 05:04:37;;;;;;;7.13;4.10;;;;;;;;;;2504319;23;20011;-78
2023/10/29 05:05:58;;;;;;;4.75;4.32;;;;;;;;;;2503797;23;20018;-79
2023/10/29 05:07:19;;;;;;;9.88;5.30;;;;;;;;;;2503826;23;20011;-79
2023/10/29 05:08:40;;;;;;;8.32;5.47;;;;;;;;;;2514025;23;20010;-78
2023/10/29 05:10:01;;;;;;;11.68;5.32;;;;;;;;;;2507711;23;20345;-76
2023/10/29 05:11:22;;;;;;;5.90;4.53;;;;;;;;;;2516272;23;20015;-76
2023/10/29 05:12:43;;;;;;;6.53;4.60;;;;;;;;;;2519065;23;20018;-77
2023/10/29 05:14:04;;;;;;;13.50;5.10;;;;;;;;;;2506020;23;20321;-77
2023/10/29 05:15:25;;;;;;;7.25;4.38;;;;;;;;;;2514580;23;20015;-77
2023/10/29 05:16:46;;;;;;;7.40;4.47;;;;;;;;;;2507252;23;20008;-78
2023/10/29 05:18:07;;;;;;;10.43;5.07;;;;;;;;;;2504816;23;20018;-78
2023/10/29 05:19:28;;;;;;;8.30;4.20;;;;;;;;;;2515627;23;20014;-78
2023/10/29 05:20:49;;;;;;;8.47;4.80;;;;;;;;;;2507486;23;20011;-77
2023/10/29 05:22:10;;;;;;;10.32;5.07;;;;;;;;;;2504077;23;20007;-77
2023/10/29 05:23:31;;;;;;;8.23;4.35;;;;;;;;;;2516400;23;20010;-76
2023/10/29 05:24:52;;;;;;;8.48;4.25;;;;;;;;;;2518639;23;20011;-76
2023/10/29 05:26:13;;;;;;;16.75;5.10;;;;;;;;;;2518996;23;20011;-74
2023/10/29 05:27:34;;;;;;;8.52;4.07;;;;;;;;;;2505207;23;20540;-74
2023/10/29 05:28:55;;;;;;;8.88;5.40;;;;;;;;;;2515910;23;20022;-74
2023/10/29 05:30:16;;;;;;;9.07;4.97;;;;;;;;;;2506433;23;20022;-74
2023/10/29 05:31:36;;;;;;;13.23;5.22;;;;;;;;;;2515314;23;20467;-74
2023/10/29 05:32:57;;;;;;;7.18;4.68;;;;;;;;;;2508110;23;20022;-73
2023/10/29 05:34:18;;;;;;;6.78;4.85;;;;;;;;;;2503315;23;20094;-74
2023/10/29 05:35:39;;;;;;;10.15;6.53;;;;;;;;;;2502204;23;20015;-75
2023/10/29 05:37:00;;;;;;;7.70;5.18;;;;;;;;;;2503395;23;20008;-74
2023/10/29 05:38:21;;;;;;;7.82;4.55;;;;;;;;;;2516305;23;20062;-76
2023/10/29 05:39:42;;;;;;;6.30;5.03;;;;;;;;;;2516493;23;20121;-75
2023/10/29 05:41:03;;;;;;;6.88;4.55;;;;;;;;;;2517790;23;20035;-76
2023/10/29 05:42:25;;;;;;;7.60;4.95;;;;;;;;;;2505791;23;20082;-75
2023/10/29 05:43:46;;;;;;;6.40;4.63;;;;;;;;;;2514671;23;20042;-75
2023/10/29 05:45:07;;;;;;;7.65;4.95;;;;;;;;;;2518471;23;20032;-76
2023/10/29 05:46:27;;;;;;;7.22;5.15;;;;;;;;;;2518235;23;20010;-76
2023/10/29 05:47:48;;;;;;;6.50;5.60;;;;;;;;;;2517566;23;20404;-76
2023/10/29 05:49:09;;;;;;;9.13;5.05;;;;;;;;;;2517253;23;20022;-75
2023/10/29 05:50:31;;;;;;;8.23;6.15;;;;;;;;;;2518479;23;20041;-77
2023/10/29 05:51:52;;;;;;;7.57;4.40;;;;;;;;;;2506195;23;20019;-77
2023/10/29 05:53:13;;;;;;;6.65;4.53;;;;;;;;;;2515709;23;20022;-78
2023/10/29 05:54:34;;;;;;;7.88;4.85;;;;;;;;;;2506389;23;20030;-77
2023/10/29 05:55:56;;;;;;;7.30;5.57;;;;;;;;;;2501946;23;20015;-77
2023/10/29 05:57:17;;;;;;;;;;;;;;;;;;2517011;23;20006;-76
2023/10/29 05:58:37;;;;;;;6.82;5.00;;;;;;;;;;2504160;23;19905;-76
2023/10/29 05:59:58;;;;;;;5.88;4.72;;;;;;;;;;2502784;23;20015;-76
2023/10/29 06:01:19;;;;;;;6.95;5.32;;;;;;;;;;2502945;23;20441;-75
2023/10/29 06:02:40;;;;;;;7.30;4.40;;;;;;;;;;2502781;23;20018;-77
2023/10/29 06:04:01;;;;;;;7.47;5.38;;;;;;;;;;2514949;23;20007;-76
2023/10/29 06:05:23;;;;;;;5.97;4.47;;;;;;;;;;2507151;23;20350;-77
2023/10/29 06:06:43;;;;;;;9.57;5.10;;;;;;;;;;2502930;23;20015;-78
2023/10/29 06:08:05;;;;;;;9.25;5.18;;;;;;;;;;2515054;23;20010;-77
2023/10/29 06:09:26;;;;;;;9.83;5.37;;;;;;;;;;2517465;23;20019;-77
2023/10/29 06:10:46;;;;;;;8.80;5.05;;;;;;;;;;2517212;23;20382;-77
2023/10/29 06:12:08;;;;;;;6.13;4.80;;;;;;;;;;2518274;23;20017;-78
2023/10/29 06:13:29;;;;;;;5.57;5.05;;;;;;;;;;2505766;23;20006;-77
2023/10/29 06:14:49;;;;;;;7.93;5.03;;;;;;;;;;2501933;23;20007;-77
2023/10/29 06:16:10;;;;;;;9.65;5.35;;;;;;;;;;2501347;23;20636;-77
2023/10/29 06:17:31;;;;;;;7.30;5.28;;;;;;;;;;2501552;23;20029;-76
2023/10/29 06:18:52;;;;;;;9.02;5.30;;;;;;;;;;2514823;23;20025;-76
2023/10/29 06:20:17;;;;;;;7.38;5.43;;;;;;;;;;2518249;23;20018;-76
2023/10/29 06:21:38;;;;;;;6.25;5.15;;;;;;;;;;2506434;23;20480;-75
2023/10/29 06:22:59;;;;;;;9.93;5.40;;;;;;;;;;2501849;23;20007;-77
2023/10/29 06:24:20;;;;;;;5.43;4.60;;;;;;;;;;2515735;23;20042;-76
2023/10/29 06:25:41;;;;;;;7.90;5.55;;;;;;;;;;2517174;23;20017;-77
2023/10/29 06:27:02;;;;;;;8.50;4.95;;;;;;;;;;2506727;23;20433;-77
2023/10/29 06:28:23;;;;;;;9.60;5.20;;;;;;;;;;2516079;23;20010;-77
2023/10/29 06:29:44;;;;;;;8.80;4.95;;;;;;;;;;2504964;23;20082;-78
2023/10/29 06:31:05;;;;;;;6.95;4.85;;;;;;;;;;2514553;23;20086;-78
2023/10/29 06:32:26;;;;;;;11.60;5.80;;;;;;;;;;2518968;23;20010;-77
2023/10/29 06:33:47;;;;;;;14.63;5.88;;;;;;;;;;2507503;23;20433;-78
2023/10/29 06:35:08;;;;;;;10.93;4.68;;;;;;;;;;2514693;23;20011;-78
2023/10/29 06:36:29;;;;;;;10.95;5.50;;;;;;;;;;2507322;23;20019;-78
2023/10/29 06:37:50;;;;;;;8.65;5.63;;;;;;;;;;2515295;23;20018;-77
2023/10/29 06:39:11;;;;;;;11.00;5.97;;;;;;;;;;2504990;23;20465;-77
2023/10/29 06:40:32;;;;;;;8.63;4.70;;;;;;;;;;2503054;23;20063;-77
2023/10/29 06:41:53;;;;;;;6.25;4.65;;;;;;;;;;2516213;23;20082;-77
2023/10/29 06:43:14;;;;;;;12.30;5.88;;;;;;;;;;2517856;23;20014;-77
2023/10/29 06:44:34;;;;;;;10.30;5.50;;;;;;;;;;2517668;23;20017;-77
2023/10/29 06:45:56;;;;;;;7.90;4.68;;;;;;;;;;2506631;23;20070;-77
2023/10/29 06:47:17;;;;;;;12.07;6.35;;;;;;;;;;2503415;23;20018;-78
2023/10/29 06:48:41;;;;;;;12.15;5.57;;;;;;;;;;2501445;23;20015;-77
2023/10/29 06:50:02;;;;;;;8.75;5.30;;;;;;;;;;2501881;23;20023;-78
2023/10/29 06:51:23;;;;;;;10.48;5.13;;;;;;;;;;2503053;23;20090;-77
2023/10/29 06:52:44;;;;;;;14.82;5.22;;;;;;;;;;2516427;23;20020;-78
2023/10/29 06:54:05;;;;;;;7.13;4.80;;;;;;;;;;2517228;23;20090;-78
2023/10/29 06:55:26;;;;;;;8.60;4.80;;;;;;;;;;2516088;23;20017;-78
2023/10/29 06:56:47;;;;;;;13.90;6.20;;;;;;;;;;2505706;23;20011;-78
2023/10/29 06:58:09;;;;;;;7.30;5.10;;;;;;;;;;2504087;23;20444;-77
2023/10/29 06:59:30;;;;;;;11.88;6.55;;;;;;;;;;2512061;23;20021;-78
2023/10/29 07:00:52;;;;;;;9.52;5.53;;;;;;;;;;2519114;23;20011;-78
2023/10/29 07:02:14;;;;;;;11.43;4.85;;;;;;;;;;2517696;23;20030;-78
2023/10/29 07:03:35;;;;;;;11.47;5.73;;;;;;;;;;2518772;23;20011;-78
2023/10/29 07:04:57;;;;;;;10.67;5.60;;;;;;;;;;2519469;23;20279;-78
2023/10/29 07:06:18;;;;;;;7.38;4.78;;;;;;;;;;2506891;23;20010;-77
2023/10/29 07:07:39;;;;;;;8.60;5.25;;;;;;;;;;2516410;23;20062;-78
2023/10/29 07:09:00;;;;;;;10.43;5.85;;;;;;;;;;2505083;23;20350;-77
2023/10/29 07:10:21;;;;;;;8.98;5.10;;;;;;;;;;2502226;23;20276;-78
2023/10/29 07:11:43;;;;;;;9.18;4.50;;;;;;;;;;2503192;23;20041;-78
2023/10/29 07:13:03;;;;;;;12.18;5.95;;;;;;;;;;2503021;23;20017;-78
2023/10/29 07:14:24;;;;;;;9.98;6.13;;;;;;;;;;2502589;23;20022;-78
2023/10/29 07:15:45;;;;;;;11.90;5.45;;;;;;;;;;2505093;23;20010;-79
2023/10/29 07:17:06;;;;;;;13.25;5.60;;;;;;;;;;2517013;23;20007;-79
2023/10/29 07:18:28;;;;;;;18.08;5.57;;;;;;;;;;2509201;23;20007;-80
2023/10/29 07:19:50;;;;;;;12.15;5.95;;;;;;;;;;2515863;23;20025;-78
2023/10/29 07:21:11;;;;;;;9.20;5.35;;;;;;;;;;2507838;23;20011;-79
2023/10/29 07:22:32;;;;;;;8.35;5.05;;;;;;;;;;2517233;23;20441;-78
2023/10/29 07:23:53;;;;;;;12.32;5.35;;;;;;;;;;2519626;23;20017;-79
2023/10/29 07:25:14;;;;;;;8.18;5.28;;;;;;;;;;2507846;23;20006;-78
2023/10/29 07:26:35;;;;;;;9.80;5.40;;;;;;;;;;2503895;23;20122;-78
2023/10/29 07:27:56;;;;;;;10.85;4.57;;;;;;;;;;2503665;23;20040;-78
2023/10/29 07:29:17;;;;;;;10.32;5.28;;;;;;;;;;2503888;23;20344;-79
2023/10/29 07:30:38;;;;;;;10.32;4.75;;;;;;;;;;2504721;23;20041;-78
2023/10/29 07:31:59;;;;;;;8.27;5.00;;;;;;;;;;2505762;23;20018;-78
2023/10/29 07:33:19;;;;;;;7.70;5.28;;;;;;;;;;2504403;23;20022;-78
2023/10/29 07:34:40;;;;;;;12.38;5.70;;;;;;;;;;2504296;23;20085;-78
2023/10/29 07:36:02;;;;;;;10.30;4.65;;;;;;;;;;2515803;23;20352;-78
2023/10/29 07:37:23;;;;;;;10.13;5.75;;;;;;;;;;2506506;23;20064;-78
2023/10/29 07:38:44;;;;;;;10.65;6.28;;;;;;;;;;2515408;23;20034;-78
2023/10/29 07:40:06;;;;;;;8.43;5.72;;;;;;;;;;2506951;23;20019;-78
2023/10/29 07:41:27;;;;;;;13.25;6.03;;;;;;;;;;2503255;23;20337;-78
2023/10/29 07:42:47;;;;;;;18.83;9.80;;;;;;;;;;2512794;23;20021;-78
2023/10/29 07:44:10;;;;;;;8.93;5.82;;;;;;;;;;2505586;23;20018;-78
2023/10/29 07:45:30;;;;;;;;;;;;;;;;;;2503495;23;20011;-79
2023/10/29 07:46:51;;;;;;;11.43;5.47;;;;;;;;;;2514408;23;19913;-79
2023/10/29 07:48:12;;;;;;;12.40;6.13;;;;;;;;;;2518000;23;20014;-79
2023/10/29 07:49:37;;;;;;;13.43;6.95;;;;;;;;;;2504939;23;20023;-79
2023/10/29 07:50:59;;;;;;;12.25;6.40;;;;;;;;;;2514891;23;20416;-78
2023/10/29 07:52:20;;;;;;;8.18;5.43;;;;;;;;;;2518662;23;20471;-78
2023/10/29 07:53:41;;;;;;;11.73;6.78;;;;;;;;;;2517311;23;20077;-78
2023/10/29 07:55:02;;;;;;;15.48;5.78;;;;;;;;;;2507722;23;20042;-78
2023/10/29 07:56:23;;;;;;;9.77;5.40;;;;;;;;;;2514400;23;20410;-78
2023/10/29 07:57:44;;;;;;;11.55;5.78;;;;;;;;;;2518290;23;20014;-77
2023/10/29 07:59:05;;;;;;;10.63;5.78;;;;;;;;;;2504932;23;20015;-78
2023/10/29 08:00:26;;;;;;;14.30;6.60;;;;;;;;;;2504095;23;20015;-77
2023/10/29 08:01:47;;;;;;;8.98;5.40;;;;;;;;;;2503227;23;20026;-77
2023/10/29 08:03:07;;;;;;;13.98;7.20;;;;;;;;;;2516881;23;20014;-78
2023/10/29 08:04:30;;;;;;;13.80;6.22;;;;;;;;;;2518216;23;20021;-79
2023/10/29 08:05:53;;;;;;;12.13;5.85;;;;;;;;;;2508963;23;20015;-77